sensor_id;sensor_type;location;lat;lon;timestamp;pressure;altitude;pressure_sealevel;temperature;humidity
55610;BME280;41486;52.502;13.486;2023-02-17T00:02:12;101379.41;;;7.64;100.00
55610;BME280;41486;52.502;13.486;2023-02-17T00:04:41;101382.03;;;7.64;100.00
55610;BME280;41486;52.502;13.486;2023-02-17T00:07:09;101384.53;;;7.66;100.00
55610;BME280;41486;52.502;13.486;2023-02-17T00:09:37;101381.38;;;7.77;100.00
55610;BME280;41486;52.502;13.486;2023-02-17T00:12:05;101376.44;;;7.70;100.00
55610;BME280;41486;52.502;13.486;2023-02-17T00:14:35;101375.25;;;7.60;100.00
55610;BME280;41486;52.502;13.486;2023-02-17T00:17:03;101369.13;;;7.44;100.00
55610;BME280;41486;52.502;13.486;2023-02-17T00:19:31;101359.22;;;7.33;100.00
55610;BME280;41486;52.502;13.486;2023-02-17T00:22:00;101355.19;;;7.25;100.00
55610;BME280;41486;52.502;13.486;2023-02-17T00:24:30;101349.81;;;7.29;100.00
55610;BME280;41486;52.502;13.486;2023-02-17T00:26:58;101354.94;;;7.30;100.00
55610;BME280;41486;52.502;13.486;2023-02-17T00:29:26;101346.13;;;7.33;100.00
55610;BME280;41486;52.502;13.486;2023-02-17T00:31:56;101341.84;;;7.30;100.00
55610;BME280;41486;52.502;13.486;2023-02-17T00:34:24;101339.66;;;7.22;100.00
55610;BME280;41486;52.502;13.486;2023-02-17T00:36:53;101336.84;;;7.25;100.00
55610;BME280;41486;52.502;13.486;2023-02-17T00:39:21;101334.41;;;7.22;100.00
55610;BME280;41486;52.502;13.486;2023-02-17T00:41:49;101336.56;;;7.32;100.00
55610;BME280;41486;52.502;13.486;2023-02-17T00:44:19;101341.03;;;7.30;100.00
55610;BME280;41486;52.502;13.486;2023-02-17T00:46:50;101330.00;;;7.23;100.00
55610;BME280;41486;52.502;13.486;2023-02-17T00:49:22;101326.47;;;7.24;100.00
55610;BME280;41486;52.502;13.486;2023-02-17T00:51:50;101334.19;;;7.09;100.00
55610;BME280;41486;52.502;13.486;2023-02-17T00:54:18;101323.88;;;7.06;100.00
55610;BME280;41486;52.502;13.486;2023-02-17T00:56:46;101326.94;;;7.15;100.00
55610;BME280;41486;52.502;13.486;2023-02-17T00:59:14;101323.63;;;7.11;100.00
55610;BME280;41486;52.502;13.486;2023-02-17T01:01:42;101317.78;;;7.06;100.00
55610;BME280;41486;52.502;13.486;2023-02-17T01:04:10;101311.25;;;6.97;100.00
55610;BME280;41486;52.502;13.486;2023-02-17T01:06:40;101301.63;;;6.98;100.00
55610;BME280;41486;52.502;13.486;2023-02-17T01:09:10;101296.63;;;6.93;100.00
55610;BME280;41486;52.502;13.486;2023-02-17T01:11:41;101295.81;;;6.92;100.00
55610;BME280;41486;52.502;13.486;2023-02-17T01:14:11;101285.34;;;6.92;100.00
55610;BME280;41486;52.502;13.486;2023-02-17T01:16:42;101290.31;;;6.97;100.00
55610;BME280;41486;52.502;13.486;2023-02-17T01:19:13;101289.56;;;6.95;100.00
55610;BME280;41486;52.502;13.486;2023-02-17T01:21:43;101276.38;;;6.97;100.00
55610;BME280;41486;52.502;13.486;2023-02-17T01:24:12;101282.78;;;6.91;100.00
55610;BME280;41486;52.502;13.486;2023-02-17T01:26:40;101277.31;;;6.95;100.00
55610;BME280;41486;52.502;13.486;2023-02-17T01:29:08;101265.31;;;7.09;100.00
55610;BME280;41486;52.502;13.486;2023-02-17T01:31:36;101274.31;;;6.86;100.00
55610;BME280;41486;52.502;13.486;2023-02-17T01:34:04;101263.31;;;6.97;100.00
55610;BME280;41486;52.502;13.486;2023-02-17T01:36:32;101261.69;;;6.94;100.00
55610;BME280;41486;52.502;13.486;2023-02-17T01:39:01;101254.31;;;7.02;100.00
55610;BME280;41486;52.502;13.486;2023-02-17T01:41:30;101249.75;;;7.06;100.00
55610;BME280;41486;52.502;13.486;2023-02-17T01:44:10;101245.69;;;7.00;100.00
55610;BME280;41486;52.502;13.486;2023-02-17T01:46:40;101256.50;;;7.10;100.00
55610;BME280;41486;52.502;13.486;2023-02-17T01:49:16;101246.22;;;7.07;100.00
55610;BME280;41486;52.502;13.486;2023-02-17T01:51:49;101249.06;;;7.02;100.00
55610;BME280;41486;52.502;13.486;2023-02-17T01:54:26;101246.91;;;7.10;100.00
55610;BME280;41486;52.502;13.486;2023-02-17T01:56:57;101239.25;;;7.23;100.00
55610;BME280;41486;52.502;13.486;2023-02-17T01:59:27;101244.50;;;7.23;100.00
55610;BME280;41486;52.502;13.486;2023-02-17T02:01:58;101251.91;;;7.15;100.00
55610;BME280;41486;52.502;13.486;2023-02-17T02:04:30;101232.94;;;7.10;100.00
55610;BME280;41486;52.502;13.486;2023-02-17T02:07:01;101232.22;;;6.90;100.00
55610;BME280;41486;52.502;13.486;2023-02-17T02:09:35;101233.47;;;6.83;100.00
55610;BME280;41486;52.502;13.486;2023-02-17T02:12:15;101226.69;;;6.79;100.00
55610;BME280;41486;52.502;13.486;2023-02-17T02:14:44;101223.56;;;6.72;100.00
55610;BME280;41486;52.502;13.486;2023-02-17T02:17:16;101226.09;;;6.74;100.00
55610;BME280;41486;52.502;13.486;2023-02-17T02:20:20;101213.47;;;6.65;100.00
55610;BME280;41486;52.502;13.486;2023-02-17T02:26:06;101197.56;;;6.52;100.00
55610;BME280;41486;52.502;13.486;2023-02-17T02:28:49;101185.94;;;6.57;100.00
55610;BME280;41486;52.502;13.486;2023-02-17T02:31:30;101181.50;;;6.42;100.00
55610;BME280;41486;52.502;13.486;2023-02-17T02:34:10;101179.81;;;6.41;100.00
55610;BME280;41486;52.502;13.486;2023-02-17T02:36:44;101168.09;;;6.30;100.00
55610;BME280;41486;52.502;13.486;2023-02-17T02:39:17;101168.06;;;6.32;100.00
55610;BME280;41486;52.502;13.486;2023-02-17T02:41:47;101169.50;;;6.38;100.00
55610;BME280;41486;52.502;13.486;2023-02-17T02:44:18;101169.03;;;6.29;100.00
55610;BME280;41486;52.502;13.486;2023-02-17T02:46:55;101169.03;;;6.29;100.00
55610;BME280;41486;52.502;13.486;2023-02-17T02:49:25;101169.97;;;6.28;100.00
55610;BME280;41486;52.502;13.486;2023-02-17T02:51:57;101163.06;;;6.27;100.00
55610;BME280;41486;52.502;13.486;2023-02-17T02:54:38;101161.34;;;6.26;100.00
55610;BME280;41486;52.502;13.486;2023-02-17T02:57:17;101157.13;;;6.24;100.00
55610;BME280;41486;52.502;13.486;2023-02-17T02:59:57;101158.66;;;6.28;100.00
55610;BME280;41486;52.502;13.486;2023-02-17T03:02:34;101151.91;;;6.24;100.00
55610;BME280;41486;52.502;13.486;2023-02-17T03:05:11;101146.97;;;6.18;100.00
55610;BME280;41486;52.502;13.486;2023-02-17T03:07:46;101136.22;;;6.24;100.00
55610;BME280;41486;52.502;13.486;2023-02-17T03:10:16;101130.78;;;6.28;100.00
55610;BME280;41486;52.502;13.486;2023-02-17T03:12:44;101123.91;;;6.26;100.00
55610;BME280;41486;52.502;13.486;2023-02-17T03:15:18;101126.50;;;6.26;100.00
55610;BME280;41486;52.502;13.486;2023-02-17T03:17:50;101122.06;;;6.28;100.00
55610;BME280;41486;52.502;13.486;2023-02-17T03:20:19;101122.75;;;6.31;100.00
55610;BME280;41486;52.502;13.486;2023-02-17T03:22:48;101110.78;;;6.27;100.00
55610;BME280;41486;52.502;13.486;2023-02-17T03:25:16;101113.53;;;6.24;100.00
55610;BME280;41486;52.502;13.486;2023-02-17T03:27:45;101115.00;;;6.30;100.00
55610;BME280;41486;52.502;13.486;2023-02-17T03:30:14;101114.91;;;6.31;100.00
55610;BME280;41486;52.502;13.486;2023-02-17T03:32:42;101105.84;;;6.21;100.00
55610;BME280;41486;52.502;13.486;2023-02-17T03:35:10;101107.38;;;6.25;100.00
55610;BME280;41486;52.502;13.486;2023-02-17T03:37:39;101124.31;;;6.36;100.00
55610;BME280;41486;52.502;13.486;2023-02-17T03:40:08;101119.22;;;6.32;100.00
55610;BME280;41486;52.502;13.486;2023-02-17T03:42:36;101120.13;;;6.31;100.00
55610;BME280;41486;52.502;13.486;2023-02-17T03:45:04;101122.38;;;6.39;100.00
55610;BME280;41486;52.502;13.486;2023-02-17T03:47:32;101120.69;;;6.38;100.00
55610;BME280;41486;52.502;13.486;2023-02-17T03:50:00;101119.53;;;6.44;100.00
55610;BME280;41486;52.502;13.486;2023-02-17T03:52:28;101109.06;;;6.44;100.00
55610;BME280;41486;52.502;13.486;2023-02-17T03:54:57;101106.50;;;6.42;100.00
55610;BME280;41486;52.502;13.486;2023-02-17T03:57:25;101102.28;;;6.40;100.00
55610;BME280;41486;52.502;13.486;2023-02-17T03:59:53;101103.06;;;6.42;100.00
55610;BME280;41486;52.502;13.486;2023-02-17T04:02:21;101110.00;;;6.43;100.00
55610;BME280;41486;52.502;13.486;2023-02-17T04:04:49;101098.66;;;6.42;100.00
55610;BME280;41486;52.502;13.486;2023-02-17T04:07:17;101097.84;;;6.42;100.00
55610;BME280;41486;52.502;13.486;2023-02-17T04:09:45;101096.47;;;6.35;100.00
55610;BME280;41486;52.502;13.486;2023-02-17T04:12:14;101091.22;;;6.52;100.00
55610;BME280;41486;52.502;13.486;2023-02-17T04:14:42;101089.22;;;6.40;100.00
55610;BME280;41486;52.502;13.486;2023-02-17T04:17:10;101090.91;;;6.41;100.00
55610;BME280;41486;52.502;13.486;2023-02-17T04:19:38;101082.97;;;6.42;100.00
55610;BME280;41486;52.502;13.486;2023-02-17T04:22:06;101078.00;;;6.38;100.00
55610;BME280;41486;52.502;13.486;2023-02-17T04:24:35;101091.59;;;6.44;100.00
55610;BME280;41486;52.502;13.486;2023-02-17T04:27:03;101084.53;;;6.46;100.00
55610;BME280;41486;52.502;13.486;2023-02-17T04:29:32;101078.00;;;6.38;100.00
55610;BME280;41486;52.502;13.486;2023-02-17T04:32:00;101083.06;;;6.41;100.00
55610;BME280;41486;52.502;13.486;2023-02-17T04:34:28;101072.63;;;6.41;100.00
55610;BME280;41486;52.502;13.486;2023-02-17T04:36:56;101071.50;;;6.45;100.00
55610;BME280;41486;52.502;13.486;2023-02-17T04:39:24;101073.44;;;6.41;100.00
55610;BME280;41486;52.502;13.486;2023-02-17T04:41:52;101062.44;;;6.52;100.00
55610;BME280;41486;52.502;13.486;2023-02-17T04:44:20;101066.81;;;6.52;100.00
55610;BME280;41486;52.502;13.486;2023-02-17T04:46:49;101073.06;;;6.49;100.00
55610;BME280;41486;52.502;13.486;2023-02-17T04:49:17;101078.06;;;6.54;100.00
55610;BME280;41486;52.502;13.486;2023-02-17T04:51:45;101083.28;;;6.54;100.00
55610;BME280;41486;52.502;13.486;2023-02-17T04:54:13;101075.09;;;6.60;100.00
55610;BME280;41486;52.502;13.486;2023-02-17T04:56:41;101063.81;;;6.59;100.00
55610;BME280;41486;52.502;13.486;2023-02-17T04:59:09;101062.13;;;6.58;100.00
55610;BME280;41486;52.502;13.486;2023-02-17T05:01:37;101055.78;;;6.62;100.00
55610;BME280;41486;52.502;13.486;2023-02-17T05:04:07;101052.44;;;6.60;100.00
55610;BME280;41486;52.502;13.486;2023-02-17T05:06:35;101049.13;;;6.57;100.00
55610;BME280;41486;52.502;13.486;2023-02-17T05:09:03;101048.53;;;6.52;100.00
55610;BME280;41486;52.502;13.486;2023-02-17T05:11:31;101059.19;;;6.65;100.00
55610;BME280;41486;52.502;13.486;2023-02-17T05:13:59;101057.38;;;6.65;100.00
55610;BME280;41486;52.502;13.486;2023-02-17T05:16:27;101053.34;;;6.59;100.00
55610;BME280;41486;52.502;13.486;2023-02-17T05:18:55;101051.47;;;6.61;100.00
55610;BME280;41486;52.502;13.486;2023-02-17T05:21:24;101036.47;;;6.65;100.00
55610;BME280;41486;52.502;13.486;2023-02-17T05:23:52;101042.56;;;6.66;100.00
55610;BME280;41486;52.502;13.486;2023-02-17T05:26:20;101051.47;;;6.61;100.00
55610;BME280;41486;52.502;13.486;2023-02-17T05:28:48;101031.50;;;6.60;100.00
55610;BME280;41486;52.502;13.486;2023-02-17T05:31:16;101035.13;;;6.58;100.00
55610;BME280;41486;52.502;13.486;2023-02-17T05:33:45;101039.19;;;6.63;100.00
55610;BME280;41486;52.502;13.486;2023-02-17T05:36:13;101036.56;;;6.63;100.00
55610;BME280;41486;52.502;13.486;2023-02-17T05:38:44;101028.72;;;6.63;100.00
55610;BME280;41486;52.502;13.486;2023-02-17T05:41:15;101027.47;;;6.71;100.00
55610;BME280;41486;52.502;13.486;2023-02-17T05:43:43;101031.09;;;6.68;100.00
55610;BME280;41486;52.502;13.486;2023-02-17T05:46:11;101031.44;;;6.78;100.00
55610;BME280;41486;52.502;13.486;2023-02-17T05:48:39;101017.75;;;6.73;100.00
55610;BME280;41486;52.502;13.486;2023-02-17T05:51:08;101026.19;;;6.78;100.00
55610;BME280;41486;52.502;13.486;2023-02-17T05:53:36;101033.13;;;6.79;100.00
55610;BME280;41486;52.502;13.486;2023-02-17T05:56:06;101028.75;;;6.79;100.00
55610;BME280;41486;52.502;13.486;2023-02-17T05:58:36;101011.28;;;6.80;100.00
55610;BME280;41486;52.502;13.486;2023-02-17T06:01:06;101019.69;;;6.85;100.00
55610;BME280;41486;52.502;13.486;2023-02-17T06:03:35;101024.19;;;6.83;100.00
55610;BME280;41486;52.502;13.486;2023-02-17T06:06:03;101016.25;;;6.85;100.00
55610;BME280;41486;52.502;13.486;2023-02-17T06:08:33;101022.31;;;6.85;100.00
55610;BME280;41486;52.502;13.486;2023-02-17T06:11:01;101007.72;;;6.81;100.00
55610;BME280;41486;52.502;13.486;2023-02-17T06:13:31;101005.22;;;6.79;100.00
55610;BME280;41486;52.502;13.486;2023-02-17T06:15:59;100994.41;;;6.86;100.00
55610;BME280;41486;52.502;13.486;2023-02-17T06:18:27;101001.56;;;6.82;100.00
55610;BME280;41486;52.502;13.486;2023-02-17T06:20:56;100987.91;;;6.77;100.00
55610;BME280;41486;52.502;13.486;2023-02-17T06:23:25;100983.16;;;6.84;100.00
55610;BME280;41486;52.502;13.486;2023-02-17T06:25:54;100985.09;;;6.80;100.00
55610;BME280;41486;52.502;13.486;2023-02-17T06:28:22;100989.00;;;6.89;100.00
55610;BME280;41486;52.502;13.486;2023-02-17T06:30:51;100985.28;;;6.93;100.00
55610;BME280;41486;52.502;13.486;2023-02-17T06:33:19;100981.28;;;7.02;100.00
55610;BME280;41486;52.502;13.486;2023-02-17T06:35:48;100977.53;;;6.91;100.00
55610;BME280;41486;52.502;13.486;2023-02-17T06:38:19;100979.13;;;6.94;100.00
55610;BME280;41486;52.502;13.486;2023-02-17T06:40:47;100982.97;;;7.03;100.00
55610;BME280;41486;52.502;13.486;2023-02-17T06:43:15;100979.19;;;7.08;100.00
55610;BME280;41486;52.502;13.486;2023-02-17T06:45:43;100970.91;;;7.00;100.00
55610;BME280;41486;52.502;13.486;2023-02-17T06:48:13;100968.03;;;7.05;100.00
55610;BME280;41486;52.502;13.486;2023-02-17T06:50:41;100973.84;;;7.10;100.00
55610;BME280;41486;52.502;13.486;2023-02-17T06:53:09;100963.22;;;7.13;100.00
55610;BME280;41486;52.502;13.486;2023-02-17T06:55:37;100963.88;;;7.17;100.00
55610;BME280;41486;52.502;13.486;2023-02-17T06:58:05;100971.59;;;7.20;100.00
55610;BME280;41486;52.502;13.486;2023-02-17T07:00:34;100967.75;;;7.25;100.00
55610;BME280;41486;52.502;13.486;2023-02-17T07:03:02;100958.41;;;7.21;100.00
55610;BME280;41486;52.502;13.486;2023-02-17T07:05:33;100954.75;;;7.24;100.00
55610;BME280;41486;52.502;13.486;2023-02-17T07:08:02;100953.19;;;7.36;100.00
55610;BME280;41486;52.502;13.486;2023-02-17T07:10:30;100946.94;;;7.38;100.00
55610;BME280;41486;52.502;13.486;2023-02-17T07:12:58;100945.00;;;7.42;100.00
55610;BME280;41486;52.502;13.486;2023-02-17T07:15:26;100935.66;;;7.52;100.00
55610;BME280;41486;52.502;13.486;2023-02-17T07:17:54;100939.41;;;7.48;100.00
55610;BME280;41486;52.502;13.486;2023-02-17T07:20:22;100939.22;;;7.51;100.00
55610;BME280;41486;52.502;13.486;2023-02-17T07:22:52;100948.59;;;7.55;100.00
55610;BME280;41486;52.502;13.486;2023-02-17T07:25:20;100944.09;;;7.57;100.00
55610;BME280;41486;52.502;13.486;2023-02-17T07:27:48;100941.28;;;7.61;100.00
55610;BME280;41486;52.502;13.486;2023-02-17T07:30:16;100942.63;;;7.68;100.00
55610;BME280;41486;52.502;13.486;2023-02-17T07:32:44;100939.44;;;7.77;100.00
55610;BME280;41486;52.502;13.486;2023-02-17T07:35:15;100931.97;;;7.71;100.00
55610;BME280;41486;52.502;13.486;2023-02-17T07:37:43;100936.00;;;7.77;100.00
55610;BME280;41486;52.502;13.486;2023-02-17T07:40:13;100937.59;;;7.79;100.00
55610;BME280;41486;52.502;13.486;2023-02-17T07:42:41;100930.84;;;7.89;100.00
55610;BME280;41486;52.502;13.486;2023-02-17T07:45:09;100920.94;;;7.95;100.00
55610;BME280;41486;52.502;13.486;2023-02-17T07:47:37;100920.56;;;7.86;100.00
55610;BME280;41486;52.502;13.486;2023-02-17T07:50:07;100922.16;;;8.03;100.00
55610;BME280;41486;52.502;13.486;2023-02-17T07:52:35;100910.34;;;7.96;100.00
55610;BME280;41486;52.502;13.486;2023-02-17T07:55:04;100908.75;;;8.08;100.00
55610;BME280;41486;52.502;13.486;2023-02-17T07:57:36;100909.50;;;8.10;100.00
55610;BME280;41486;52.502;13.486;2023-02-17T08:00:05;100909.69;;;8.07;100.00
55610;BME280;41486;52.502;13.486;2023-02-17T08:02:39;100902.41;;;8.12;100.00
55610;BME280;41486;52.502;13.486;2023-02-17T08:05:07;100908.19;;;8.17;100.00
55610;BME280;41486;52.502;13.486;2023-02-17T08:07:35;100909.13;;;8.16;100.00
55610;BME280;41486;52.502;13.486;2023-02-17T08:10:04;100912.88;;;8.27;100.00
55610;BME280;41486;52.502;13.486;2023-02-17T08:12:51;100904.16;;;8.26;100.00
55610;BME280;41486;52.502;13.486;2023-02-17T08:15:37;100911.19;;;8.26;100.00
55610;BME280;41486;52.502;13.486;2023-02-17T08:18:05;100913.69;;;8.27;100.00
55610;BME280;41486;52.502;13.486;2023-02-17T08:20:33;100920.88;;;8.38;100.00
55610;BME280;41486;52.502;13.486;2023-02-17T08:23:01;100914.28;;;8.32;100.00
55610;BME280;41486;52.502;13.486;2023-02-17T08:25:31;100910.41;;;8.38;100.00
55610;BME280;41486;52.502;13.486;2023-02-17T08:28:01;100909.94;;;8.46;100.00
55610;BME280;41486;52.502;13.486;2023-02-17T08:30:30;100903.00;;;8.45;100.00
55610;BME280;41486;52.502;13.486;2023-02-17T08:32:58;100902.88;;;8.46;100.00
55610;BME280;41486;52.502;13.486;2023-02-17T08:35:26;100900.88;;;8.37;100.00
55610;BME280;41486;52.502;13.486;2023-02-17T08:37:57;100890.38;;;8.51;100.00
55610;BME280;41486;52.502;13.486;2023-02-17T08:40:25;100898.53;;;8.47;100.00
55610;BME280;41486;52.502;13.486;2023-02-17T08:42:53;100888.03;;;8.47;100.00
55610;BME280;41486;52.502;13.486;2023-02-17T08:45:23;100895.13;;;8.45;100.00
55610;BME280;41486;52.502;13.486;2023-02-17T08:47:52;100892.78;;;8.40;100.00
55610;BME280;41486;52.502;13.486;2023-02-17T08:50:20;100891.09;;;8.39;100.00
55610;BME280;41486;52.502;13.486;2023-02-17T08:52:49;100890.56;;;8.34;100.00
55610;BME280;41486;52.502;13.486;2023-02-17T08:55:17;100884.69;;;8.30;100.00
55610;BME280;41486;52.502;13.486;2023-02-17T08:57:46;100893.09;;;8.35;100.00
55610;BME280;41486;52.502;13.486;2023-02-17T09:00:15;100881.38;;;8.41;100.00
55610;BME280;41486;52.502;13.486;2023-02-17T09:02:45;100869.72;;;8.45;100.00
55610;BME280;41486;52.502;13.486;2023-02-17T09:05:13;100871.06;;;8.38;100.00
55610;BME280;41486;52.502;13.486;2023-02-17T09:07:41;100854.78;;;8.33;100.00
55610;BME280;41486;52.502;13.486;2023-02-17T09:10:10;100856.28;;;8.37;100.00
55610;BME280;41486;52.502;13.486;2023-02-17T09:12:39;100846.34;;;8.42;100.00
55610;BME280;41486;52.502;13.486;2023-02-17T09:15:07;100845.31;;;8.45;100.00
55610;BME280;41486;52.502;13.486;2023-02-17T09:17:38;100844.94;;;8.36;100.00
55610;BME280;41486;52.502;13.486;2023-02-17T09:20:09;100833.00;;;8.45;100.00
55610;BME280;41486;52.502;13.486;2023-02-17T09:22:50;100832.03;;;8.33;100.00
55610;BME280;41486;52.502;13.486;2023-02-17T09:25:18;100833.22;;;8.42;100.00
55610;BME280;41486;52.502;13.486;2023-02-17T09:27:47;100823.88;;;8.38;100.00
55610;BME280;41486;52.502;13.486;2023-02-17T09:30:15;100812.44;;;8.39;100.00
55610;BME280;41486;52.502;13.486;2023-02-17T09:32:43;100816.34;;;8.46;100.00
55610;BME280;41486;52.502;13.486;2023-02-17T09:35:14;100813.56;;;8.49;100.00
55610;BME280;41486;52.502;13.486;2023-02-17T09:37:44;100801.38;;;8.48;100.00
55610;BME280;41486;52.502;13.486;2023-02-17T09:40:16;100807.75;;;8.44;100.00
55610;BME280;41486;52.502;13.486;2023-02-17T09:42:45;100800.56;;;8.48;100.00
55610;BME280;41486;52.502;13.486;2023-02-17T09:45:18;100795.31;;;8.48;100.00
55610;BME280;41486;52.502;13.486;2023-02-17T09:47:51;100789.22;;;8.47;100.00
55610;BME280;41486;52.502;13.486;2023-02-17T09:50:25;100784.72;;;8.49;100.00
55610;BME280;41486;52.502;13.486;2023-02-17T09:52:59;100790.22;;;8.45;100.00
55610;BME280;41486;52.502;13.486;2023-02-17T09:55:33;100780.78;;;8.42;100.00
55610;BME280;41486;52.502;13.486;2023-02-17T09:58:08;100782.47;;;8.43;100.00
55610;BME280;41486;52.502;13.486;2023-02-17T10:00:41;100787.25;;;8.36;100.00
55610;BME280;41486;52.502;13.486;2023-02-17T10:03:15;100779.22;;;8.40;100.00
55610;BME280;41486;52.502;13.486;2023-02-17T10:05:50;100775.53;;;8.42;100.00
55610;BME280;41486;52.502;13.486;2023-02-17T10:08:21;100772.91;;;8.42;100.00
55610;BME280;41486;52.502;13.486;2023-02-17T10:10:55;100763.38;;;8.41;100.00
55610;BME280;41486;52.502;13.486;2023-02-17T10:13:31;100771.97;;;8.43;100.00
55610;BME280;41486;52.502;13.486;2023-02-17T10:16:05;100770.47;;;8.39;100.00
55610;BME280;41486;52.502;13.486;2023-02-17T10:18:45;100765.41;;;8.50;100.00
55610;BME280;41486;52.502;13.486;2023-02-17T10:21:20;100753.34;;;8.48;100.00
55610;BME280;41486;52.502;13.486;2023-02-17T10:23:55;100751.94;;;8.42;100.00
55610;BME280;41486;52.502;13.486;2023-02-17T10:26:35;100754.81;;;8.52;100.00
55610;BME280;41486;52.502;13.486;2023-02-17T10:29:17;100741.59;;;8.53;100.00
55610;BME280;41486;52.502;13.486;2023-02-17T10:31:53;100738.88;;;8.55;100.00
55610;BME280;41486;52.502;13.486;2023-02-17T10:34:34;100716.06;;;8.43;100.00
55610;BME280;41486;52.502;13.486;2023-02-17T10:37:13;100720.94;;;8.49;100.00
55610;BME280;41486;52.502;13.486;2023-02-17T10:39:46;100707.59;;;8.52;100.00
55610;BME280;41486;52.502;13.486;2023-02-17T10:42:20;100711.16;;;8.51;100.00
55610;BME280;41486;52.502;13.486;2023-02-17T10:44:50;100717.28;;;8.51;100.00
55610;BME280;41486;52.502;13.486;2023-02-17T10:47:20;100716.56;;;8.62;100.00
55610;BME280;41486;52.502;13.486;2023-02-17T10:49:50;100704.47;;;8.60;100.00
55610;BME280;41486;52.502;13.486;2023-02-17T10:52:22;100693.75;;;8.63;100.00
55610;BME280;41486;52.502;13.486;2023-02-17T10:54:56;100697.66;;;8.70;100.00
55610;BME280;41486;52.502;13.486;2023-02-17T10:57:38;100687.69;;;8.75;100.00
55610;BME280;41486;52.502;13.486;2023-02-17T11:00:14;100683.28;;;8.76;100.00
55610;BME280;41486;52.502;13.486;2023-02-17T11:02:45;100675.22;;;8.79;100.00
55610;BME280;41486;52.502;13.486;2023-02-17T11:05:21;100675.97;;;8.81;100.00
55610;BME280;41486;52.502;13.486;2023-02-17T11:07:57;100651.28;;;8.83;100.00
55610;BME280;41486;52.502;13.486;2023-02-17T11:10:28;100648.53;;;8.85;100.00
55610;BME280;41486;52.502;13.486;2023-02-17T11:12:58;100635.31;;;8.87;100.00
55610;BME280;41486;52.502;13.486;2023-02-17T11:15:31;100621.56;;;8.96;100.00
55610;BME280;41486;52.502;13.486;2023-02-17T11:18:08;100622.28;;;8.98;100.00
55610;BME280;41486;52.502;13.486;2023-02-17T11:20:37;100612.53;;;9.00;100.00
55610;BME280;41486;52.502;13.486;2023-02-17T11:23:21;100600.03;;;9.04;100.00
55610;BME280;41486;52.502;13.486;2023-02-17T11:26:01;100601.47;;;9.08;100.00
55610;BME280;41486;52.502;13.486;2023-02-17T11:28:30;100593.41;;;9.11;100.00
55610;BME280;41486;52.502;13.486;2023-02-17T11:30:59;100574.44;;;9.19;100.00
55610;BME280;41486;52.502;13.486;2023-02-17T11:33:33;100579.50;;;9.22;100.00
55610;BME280;41486;52.502;13.486;2023-02-17T11:36:03;100574.66;;;9.28;100.00
55610;BME280;41486;52.502;13.486;2023-02-17T11:38:42;100574.81;;;9.38;100.00
55610;BME280;41486;52.502;13.486;2023-02-17T11:41:11;100575.22;;;9.45;100.00
55610;BME280;41486;52.502;13.486;2023-02-17T11:43:50;100557.66;;;9.45;100.00
55610;BME280;41486;52.502;13.486;2023-02-17T11:46:26;100545.75;;;9.53;100.00
55610;BME280;41486;52.502;13.486;2023-02-17T11:49:25;100542.03;;;9.55;100.00
55610;BME280;41486;52.502;13.486;2023-02-17T11:52:08;100525.72;;;9.63;100.00
55610;BME280;41486;52.502;13.486;2023-02-17T11:54:50;100520.00;;;9.69;100.00
55610;BME280;41486;52.502;13.486;2023-02-17T11:57:34;100506.06;;;9.69;100.00
55610;BME280;41486;52.502;13.486;2023-02-17T12:00:13;100493.88;;;9.79;100.00
55610;BME280;41486;52.502;13.486;2023-02-17T12:03:08;100485.03;;;9.80;100.00
55610;BME280;41486;52.502;13.486;2023-02-17T12:05:59;100481.34;;;9.83;100.00
55610;BME280;41486;52.502;13.486;2023-02-17T12:08:40;100474.31;;;9.94;100.00
55610;BME280;41486;52.502;13.486;2023-02-17T12:11:23;100481.88;;;10.10;100.00
55610;BME280;41486;52.502;13.486;2023-02-17T12:14:03;100488.81;;;10.12;100.00
55610;BME280;41486;52.502;13.486;2023-02-17T12:16:44;100480.66;;;10.15;100.00
55610;BME280;41486;52.502;13.486;2023-02-17T12:19:25;100473.75;;;10.25;100.00
55610;BME280;41486;52.502;13.486;2023-02-17T12:22:04;100462.50;;;10.23;100.00
55610;BME280;41486;52.502;13.486;2023-02-17T12:24:57;100459.56;;;10.39;100.00
55610;BME280;41486;52.502;13.486;2023-02-17T12:27:41;100445.31;;;10.41;100.00
55610;BME280;41486;52.502;13.486;2023-02-17T12:30:44;100443.75;;;10.50;100.00
55610;BME280;41486;52.502;13.486;2023-02-17T12:33:29;100440.38;;;10.60;100.00
55610;BME280;41486;52.502;13.486;2023-02-17T12:36:04;100427.72;;;10.65;100.00
55610;BME280;41486;52.502;13.486;2023-02-17T12:38:38;100421.94;;;10.71;100.00
55610;BME280;41486;52.502;13.486;2023-02-17T12:41:12;100434.75;;;10.76;100.00
55610;BME280;41486;52.502;13.486;2023-02-17T12:43:47;100434.59;;;10.88;100.00
55610;BME280;41486;52.502;13.486;2023-02-17T12:46:20;100414.78;;;10.94;100.00
55610;BME280;41486;52.502;13.486;2023-02-17T12:48:53;100416.00;;;11.01;100.00
55610;BME280;41486;52.502;13.486;2023-02-17T12:51:27;100419.06;;;11.07;100.00
55610;BME280;41486;52.502;13.486;2023-02-17T12:54:01;100412.91;;;11.17;100.00
55610;BME280;41486;52.502;13.486;2023-02-17T12:56:41;100407.13;;;11.24;100.00
55610;BME280;41486;52.502;13.486;2023-02-17T12:59:17;100406.38;;;11.33;100.00
55610;BME280;41486;52.502;13.486;2023-02-17T13:01:51;100413.56;;;11.31;100.00
55610;BME280;41486;52.502;13.486;2023-02-17T13:04:21;100413.69;;;11.29;100.00
55610;BME280;41486;52.502;13.486;2023-02-17T13:06:55;100398.53;;;11.43;100.00